Time;durP1;ratioP1;P1;durP2;ratioP2;P2;SDS_P1;SDS_P2;PMS_P1;PMS_P2;Temp;Humidity;BMP_temperature;BMP_pressure;BME280_temperature;BME280_humidity;BME280_pressure;Samples;Min_cycle;Max_cycle;Signal;HPM_P1;HPM_P2
2022/01/12 00:01:39;;;;;;;23.33;14.40;;;-1.30;99.90;;;;;;5035974;28;20194;-53
2022/01/12 00:04:05;;;;;;;24.40;13.40;;;-1.30;99.90;;;;;;5049545;28;20184;-52
2022/01/12 00:06:31;;;;;;;26.57;15.13;;;-1.30;99.90;;;;;;5034494;28;20448;-54
2022/01/12 00:08:59;;;;;;;20.83;13.37;;;-1.30;99.90;;;;;;5035717;28;20436;-54
2022/01/12 00:11:25;;;;;;;24.40;13.90;;;-1.30;99.90;;;;;;5030236;28;20461;-54
2022/01/12 00:13:51;;;;;;;22.07;12.10;;;-1.30;99.90;;;;;;5028329;28;20213;-53
2022/01/12 00:16:17;;;;;;;26.23;13.30;;;-1.30;99.90;;;;;;5036605;28;20264;-52
2022/01/12 00:18:45;;;;;;;21.13;12.65;;;-1.30;99.90;;;;;;5039528;28;20171;-55
2022/01/12 00:21:12;;;;;;;23.90;13.38;;;-1.30;99.90;;;;;;5044967;28;20689;-55
2022/01/12 00:23:39;;;;;;;23.45;14.40;;;-1.30;99.90;;;;;;5041714;28;20187;-54
2022/01/12 00:26:12;;;;;;;25.85;13.50;;;-1.30;99.90;;;;;;5036451;28;20214;-55
2022/01/12 00:34:08;;;;;;;23.55;13.40;;;-1.30;99.90;;;;;;5035011;28;20190;-50
2022/01/12 00:36:35;;;;;;;24.33;12.32;;;-1.40;99.90;;;;;;5038193;28;20193;-51
2022/01/12 00:39:04;;;;;;;24.52;13.82;;;-1.50;99.90;;;;;;5040699;28;20179;-52
2022/01/12 00:41:30;;;;;;;22.88;14.18;;;-1.50;99.90;;;;;;5025462;28;20698;-52
2022/01/12 00:43:58;;;;;;;22.77;13.93;;;-1.50;99.90;;;;;;5044372;28;20194;-51
2022/01/12 00:46:28;;;;;;;25.92;13.05;;;-1.50;99.90;;;;;;5047899;28;20190;-53
2022/01/12 00:48:56;;;;;;;23.60;13.38;;;-1.60;99.90;;;;;;5046083;28;20573;-51
2022/01/12 00:51:26;;;;;;;25.17;14.45;;;-1.60;99.90;;;;;;5035035;28;20633;-56
2022/01/12 00:53:52;;;;;;;26.17;14.15;;;-1.60;99.90;;;;;;5025537;28;20179;-53
2022/01/12 00:56:17;;;;;;;25.60;13.87;;;-1.70;99.90;;;;;;5028358;28;20236;-53
2022/01/12 00:58:43;;;;;;;24.00;13.77;;;-1.60;99.90;;;;;;5042258;28;20776;-51
2022/01/12 01:01:08;;;;;;;26.30;14.60;;;-1.70;99.90;;;;;;5040532;28;20776;-53
2022/01/12 01:03:34;;;;;;;24.87;12.50;;;-1.60;99.90;;;;;;5040461;28;20709;-54
2022/01/12 01:06:00;;;;;;;25.90;12.70;;;-1.70;99.90;;;;;;5036434;28;20206;-54
2022/01/12 01:08:25;;;;;;;22.90;14.20;;;-1.70;99.90;;;;;;5033124;28;20236;-49
2022/01/12 01:10:53;;;;;;;27.07;14.83;;;-1.70;99.90;;;;;;5032331;28;20612;-53
2022/01/12 01:13:26;;;;;;;22.60;12.68;;;-1.70;99.90;;;;;;5036336;28;20189;-55
2022/01/12 01:16:31;;;;;;;25.75;13.93;;;-1.70;99.90;;;;;;5037404;28;20190;-53
2022/01/12 01:26:58;;;;;;;21.58;12.95;;;-1.90;99.90;;;;;;5028065;28;20278;-54
2022/01/12 01:29:24;;;;;;;22.00;13.10;;;-2.00;99.90;;;;;;5026904;28;20594;-55
2022/01/12 01:31:50;;;;;;;20.57;12.30;;;-1.90;99.90;;;;;;5042024;28;20501;-51
2022/01/12 01:34:16;;;;;;;19.10;12.30;;;-2.00;99.90;;;;;;5032804;28;20221;-54
2022/01/12 01:36:47;;;;;;;22.23;12.77;;;-1.90;99.90;;;;;;5028664;28;20506;-50
2022/01/12 01:39:16;;;;;;;25.10;13.13;;;-2.00;99.90;;;;;;5028205;28;20310;-54
2022/01/12 01:41:46;;;;;;;24.52;13.68;;;-2.00;99.90;;;;;;5042923;28;20201;-53
2022/01/12 01:53:18;;;;;;;19.90;11.30;;;-2.00;99.90;;;;;;5028328;28;20242;-51
2022/01/12 01:55:08;;;;;;;24.02;13.02;;;-2.10;99.90;;;;;;5045085;28;20664;-54
2022/01/12 01:57:34;;;;;;;21.42;12.70;;;-2.00;99.90;;;;;;5031346;28;20719;-54
2022/01/12 02:00:00;;;;;;;22.50;12.23;;;-2.00;99.90;;;;;;5031277;28;20187;-50
2022/01/12 02:02:26;;;;;;;23.92;11.80;;;-1.90;99.90;;;;;;5030372;28;20638;-52
2022/01/12 02:04:52;;;;;;;22.35;12.75;;;-1.90;99.90;;;;;;5031155;28;20201;-50
2022/01/12 02:07:18;;;;;;;22.83;12.80;;;-1.80;99.90;;;;;;5032321;28;20538;-53
2022/01/12 02:09:43;;;;;;;20.60;11.33;;;-1.70;99.90;;;;;;5030679;28;20190;-53
2022/01/12 02:12:10;;;;;;;20.33;11.50;;;-1.70;99.90;;;;;;5015343;28;20199;-53
2022/01/12 02:14:36;;;;;;;19.90;11.73;;;-1.60;99.90;;;;;;5029746;28;20183;-51
2022/01/12 02:17:12;;;;;;;21.23;11.30;;;-1.60;99.90;;;;;;5031485;28;20169;-55
2022/01/12 02:19:51;;;;;;;19.30;11.27;;;-1.50;99.90;;;;;;5029043;28;20284;-53
2022/01/12 02:36:18;;;;;;;18.48;11.15;;;-1.20;99.90;;;;;;5029817;28;20718;-52
2022/01/12 02:41:28;;;;;;;13.27;9.00;;;-1.10;99.90;;;;;;5032490;28;20209;-52
2022/01/12 02:54:52;;;;;;;16.10;9.80;;;-1.10;99.90;;;;;;5031247;28;20179;-55
2022/01/12 02:57:18;;;;;;;16.90;10.25;;;-1.10;99.90;;;;;;5030072;28;20189;-52
2022/01/12 03:00:07;;;;;;;15.77;9.52;;;-1.10;99.90;;;;;;5028764;28;20226;-52
2022/01/12 03:02:41;;;;;;;17.58;10.38;;;-1.10;99.90;;;;;;5032926;28;20182;-52
2022/01/12 03:07:53;;;;;;;17.98;9.80;;;-1.00;99.90;;;;;;5030904;28;20214;-55
2022/01/12 03:10:19;;;;;;;16.60;10.30;;;-1.00;99.90;;;;;;5038452;28;20415;-53
2022/01/12 03:12:45;;;;;;;21.60;11.90;;;-1.00;99.90;;;;;;5031490;28;20277;-50
2022/01/12 03:15:11;;;;;;;18.23;11.10;;;-1.00;99.90;;;;;;5041048;28;20189;-55
2022/01/12 03:17:37;;;;;;;21.87;11.20;;;-1.10;99.90;;;;;;5031754;28;20546;-51
2022/01/12 03:20:06;;;;;;;19.67;11.50;;;-1.20;99.90;;;;;;5031522;28;20507;-52
2022/01/12 03:22:31;;;;;;;22.77;12.90;;;-1.30;99.90;;;;;;5034969;28;20202;-52
2022/01/12 03:24:57;;;;;;;20.70;13.27;;;-1.30;99.90;;;;;;5035005;28;20210;-53
2022/01/12 03:27:25;;;;;;;17.93;11.57;;;-1.30;99.90;;;;;;5039193;28;20214;-54
2022/01/12 03:29:55;;;;;;;19.67;12.80;;;-1.20;99.90;;;;;;5030719;28;20182;-53
2022/01/12 03:32:27;;;;;;;22.10;13.27;;;-1.20;99.90;;;;;;5040580;28;20206;-55
2022/01/12 03:35:05;;;;;;;23.55;12.45;;;-1.20;99.90;;;;;;5044925;28;20201;-54
2022/01/12 03:37:54;;;;;;;24.30;13.15;;;-1.20;99.90;;;;;;5042762;28;20682;-54
2022/01/12 03:40:20;;;;;;;20.05;12.23;;;-1.10;99.90;;;;;;5019262;28;20628;-54
2022/01/12 03:42:46;;;;;;;21.05;11.60;;;-1.10;99.90;;;;;;5030710;28;20186;-51
2022/01/12 03:45:11;;;;;;;21.50;12.33;;;-1.00;99.90;;;;;;5036421;28;20202;-53
2022/01/12 03:47:37;;;;;;;23.17;13.70;;;-0.90;99.90;;;;;;5028516;28;20179;-58
2022/01/12 03:50:03;;;;;;;21.00;12.77;;;-0.90;99.90;;;;;;5039681;28;20563;-53
2022/01/12 03:52:28;;;;;;;21.05;12.98;;;-0.90;99.90;;;;;;5030879;28;20191;-55
2022/01/12 03:54:54;;;;;;;21.27;11.10;;;-0.90;99.90;;;;;;5029367;28;20557;-55
2022/01/12 03:57:20;;;;;;;22.03;13.67;;;-0.90;99.90;;;;;;5033084;28;20192;-56
2022/01/12 03:59:45;;;;;;;25.47;14.30;;;-0.90;99.90;;;;;;5035295;28;20187;-54
2022/01/12 04:02:11;;;;;;;22.53;13.73;;;-0.90;99.90;;;;;;5029265;28;20316;-52
2022/01/12 04:04:53;;;;;;;20.07;12.53;;;-0.90;99.90;;;;;;5029813;28;20199;-52
2022/01/12 04:10:03;;;;;;;22.63;12.48;;;-0.90;99.90;;;;;;5036867;28;20192;-52
2022/01/12 04:12:30;;;;;;;20.87;12.50;;;-1.00;99.90;;;;;;5029566;28;20187;-60
2022/01/12 04:14:56;;;;;;;25.65;14.00;;;-1.10;99.90;;;;;;5029004;28;20191;-53
2022/01/12 04:17:21;;;;;;;25.07;13.53;;;-1.20;99.90;;;;;;5027198;28;20187;-55
2022/01/12 04:19:47;;;;;;;25.97;13.93;;;-1.20;99.90;;;;;;5027637;28;20929;-53
2022/01/12 04:24:57;;;;;;;25.58;13.90;;;-1.20;99.90;;;;;;5039855;28;20205;-54
2022/01/12 04:27:22;;;;;;;24.30;14.53;;;-1.20;99.90;;;;;;5032189;28;20183;-55
2022/01/12 04:29:48;;;;;;;25.47;14.20;;;-1.20;99.90;;;;;;5027733;28;20187;-55
2022/01/12 04:32:13;;;;;;;27.23;15.10;;;-1.30;99.90;;;;;;5042751;28;20692;-56
2022/01/12 04:34:39;;;;;;;25.30;14.80;;;-1.30;99.90;;;;;;5028501;28;20191;-53
2022/01/12 04:37:04;;;;;;;28.00;15.60;;;-1.30;99.90;;;;;;5031668;28;20206;-52
2022/01/12 04:39:30;;;;;;;23.80;14.13;;;-1.30;99.90;;;;;;5036595;28;20684;-55
2022/01/12 04:41:55;;;;;;;25.47;15.57;;;-1.30;99.90;;;;;;5042586;28;20182;-54
2022/01/12 04:44:21;;;;;;;24.83;14.43;;;-1.30;99.90;;;;;;5029624;28;20182;-53
2022/01/12 04:47:03;;;;;;;34.23;16.73;;;-1.40;99.90;;;;;;5034141;28;20179;-54
2022/01/12 04:52:12;;;;;;;24.75;14.73;;;-1.50;99.90;;;;;;5029392;28;20175;-52
2022/01/12 04:54:38;;;;;;;28.77;15.33;;;-1.50;99.90;;;;;;5048624;28;20189;-52
2022/01/12 04:57:03;;;;;;;26.57;14.60;;;-1.50;99.90;;;;;;5037767;28;20205;-52
2022/01/12 04:59:31;;;;;;;28.33;14.83;;;-1.50;99.90;;;;;;5028426;28;20589;-51
2022/01/12 05:02:10;;;;;;;25.08;14.90;;;-1.50;99.90;;;;;;5028695;28;20560;-51
2022/01/12 05:07:30;;;;;;;24.88;14.18;;;-1.50;99.90;;;;;;5027681;28;20185;-55
2022/01/12 05:15:23;;;;;;;26.05;13.57;;;-1.40;99.90;;;;;;5026996;28;20190;-52
2022/01/12 05:17:48;;;;;;;26.92;15.60;;;-1.30;99.90;;;;;;5027341;28;20723;-56
2022/01/12 05:20:14;;;;;;;22.73;14.83;;;-1.30;99.90;;;;;;5034001;28;20190;-55
2022/01/12 05:22:39;;;;;;;23.70;13.67;;;-1.30;99.90;;;;;;5025817;28;20668;-54
2022/01/12 05:25:05;;;;;;;24.90;14.50;;;-1.30;99.90;;;;;;5032971;28;20218;-54
2022/01/12 05:27:31;;;;;;;28.40;14.53;;;-1.30;99.90;;;;;;5039323;28;20194;-54
2022/01/12 05:29:56;;;;;;;26.50;15.03;;;-1.30;99.90;;;;;;5033523;28;20539;-53
2022/01/12 05:32:24;;;;;;;31.93;16.27;;;-1.30;99.90;;;;;;5028950;28;20194;-50
2022/01/12 05:34:50;;;;;;;25.15;14.40;;;-1.30;99.90;;;;;;5026113;28;20236;-49
2022/01/12 05:37:15;;;;;;;26.63;14.23;;;-1.30;99.90;;;;;;5028205;28;20589;-51
2022/01/12 05:39:41;;;;;;;22.10;14.27;;;-1.30;99.90;;;;;;5027698;28;20182;-55
2022/01/12 05:42:07;;;;;;;26.90;15.70;;;-1.40;99.90;;;;;;5028818;28;20183;-51
2022/01/12 05:44:35;;;;;;;26.87;15.07;;;-1.40;99.90;;;;;;5021550;28;20213;-49
2022/01/12 05:47:00;;;;;;;25.25;15.20;;;-1.40;99.90;;;;;;5023585;28;20851;-50
2022/01/12 05:49:36;;;;;;;24.97;15.67;;;-1.40;99.90;;;;;;5030618;28;20230;-51
2022/01/12 05:52:03;;;;;;;26.90;15.02;;;-1.50;99.90;;;;;;5037177;28;20416;-54
2022/01/12 05:54:29;;;;;;;28.60;15.82;;;-1.40;99.90;;;;;;5042833;28;20186;-52
2022/01/12 05:56:55;;;;;;;25.70;14.83;;;-1.40;99.90;;;;;;5038339;28;20214;-52
2022/01/12 05:59:20;;;;;;;31.27;17.33;;;-1.40;99.90;;;;;;5025248;28;20645;-51
2022/01/12 06:01:46;;;;;;;24.67;13.97;;;-1.40;99.90;;;;;;5031153;28;20190;-50
2022/01/12 06:04:11;;;;;;;25.80;15.27;;;-1.40;99.90;;;;;;5043293;28;20201;-53
2022/01/12 06:06:37;;;;;;;25.83;15.17;;;-1.30;99.90;;;;;;5038349;28;20186;-53
2022/01/12 06:09:03;;;;;;;25.50;15.33;;;-1.30;99.90;;;;;;5042747;28;20186;-52
2022/01/12 06:11:28;;;;;;;25.60;15.25;;;-1.40;99.90;;;;;;5027681;28;20183;-51
2022/01/12 06:13:57;;;;;;;29.70;15.57;;;-1.30;99.90;;;;;;5030157;28;20191;-52
2022/01/12 06:16:28;;;;;;;23.90;14.52;;;-1.30;99.90;;;;;;5027691;28;20183;-49
2022/01/12 06:18:55;;;;;;;31.13;17.10;;;-1.30;99.90;;;;;;5031426;28;20220;-54
2022/01/12 06:21:21;;;;;;;28.08;16.20;;;-1.30;99.90;;;;;;5022716;28;20187;-50
2022/01/12 06:23:46;;;;;;;36.90;15.00;;;-1.30;99.90;;;;;;5034426;28;20615;-51
2022/01/12 06:26:12;;;;;;;29.20;15.87;;;-1.30;99.90;;;;;;5022424;28;20317;-60
2022/01/12 06:28:41;;;;;;;28.77;15.50;;;-1.30;99.90;;;;;;5030517;28;20504;-61
2022/01/12 06:31:10;;;;;;;29.30;16.20;;;-1.30;99.90;;;;;;5027945;28;20899;-60
2022/01/12 06:33:48;;;;;;;28.20;16.30;;;-1.30;99.90;;;;;;5030397;28;20298;-60
2022/01/12 06:36:17;;;;;;;30.80;16.27;;;-1.20;99.90;;;;;;5040200;28;20212;-61
2022/01/12 06:38:43;;;;;;;31.98;18.05;;;-1.20;99.90;;;;;;5041062;28;20900;-61
2022/01/12 06:41:10;;;;;;;29.77;15.60;;;-1.20;99.90;;;;;;5041169;28;20462;-60
2022/01/12 06:43:35;;;;;;;34.03;18.08;;;-1.20;99.90;;;;;;5026272;28;20259;-61
2022/01/12 06:46:03;;;;;;;30.17;16.27;;;-1.20;99.90;;;;;;5019759;28;20213;-61
2022/01/12 06:48:29;;;;;;;29.58;17.15;;;-1.20;99.90;;;;;;5042674;28;20193;-61
2022/01/12 06:50:54;;;;;;;30.63;17.77;;;-1.10;99.90;;;;;;5040894;28;20595;-60
2022/01/12 06:53:20;;;;;;;31.53;17.00;;;-1.20;99.90;;;;;;5032906;28;20264;-61
2022/01/12 06:55:45;;;;;;;26.40;16.00;;;-1.20;99.90;;;;;;5026431;28;20661;-60
2022/01/12 06:58:11;;;;;;;32.77;17.40;;;-1.20;99.90;;;;;;5039514;28;20190;-61
2022/01/12 07:00:37;;;;;;;32.27;16.83;;;-1.20;99.90;;;;;;5034332;28;20183;-61
2022/01/12 07:03:03;;;;;;;29.92;16.17;;;-1.10;99.90;;;;;;5026278;28;20179;-61
2022/01/12 07:05:28;;;;;;;32.07;17.10;;;-1.00;99.90;;;;;;5037160;28;20687;-60
2022/01/12 07:07:54;;;;;;;32.27;17.23;;;-1.00;99.90;;;;;;5041927;28;20185;-61
2022/01/12 07:10:19;;;;;;;30.37;16.60;;;-1.00;99.90;;;;;;5029079;28;20179;-61
2022/01/12 07:12:45;;;;;;;34.97;18.87;;;-1.00;99.90;;;;;;5028417;28;20191;-61
2022/01/12 07:15:11;;;;;;;30.67;17.37;;;-1.00;99.90;;;;;;5029624;28;20466;-61
2022/01/12 07:17:36;;;;;;;32.17;17.47;;;-1.00;99.90;;;;;;5021420;28;20237;-60
2022/01/12 07:20:03;;;;;;;36.77;19.70;;;-1.00;99.90;;;;;;5027520;28;20183;-60
2022/01/12 07:22:29;;;;;;;28.05;18.58;;;-1.00;99.90;;;;;;5031528;28;20191;-61
2022/01/12 07:24:55;;;;;;;32.38;18.33;;;-1.00;99.90;;;;;;5032714;28;20191;-61
2022/01/12 07:27:21;;;;;;;30.00;17.60;;;-1.00;99.90;;;;;;5028235;28;20187;-58
2022/01/12 07:29:46;;;;;;;30.03;17.27;;;-1.00;99.90;;;;;;5028582;28;20204;-61
2022/01/12 07:32:12;;;;;;;31.67;18.43;;;-1.00;99.90;;;;;;5029804;28;20222;-61
2022/01/12 07:34:37;;;;;;;33.23;18.20;;;-1.10;99.90;;;;;;5030132;28;20277;-60
2022/01/12 07:37:03;;;;;;;31.03;16.93;;;-1.10;99.90;;;;;;5028259;28;20433;-61
2022/01/12 07:39:29;;;;;;;30.00;16.53;;;-1.00;99.90;;;;;;5027931;28;20195;-61
2022/01/12 07:41:54;;;;;;;31.00;17.93;;;-1.00;99.90;;;;;;5028161;28;20430;-60
2022/01/12 07:44:21;;;;;;;34.73;20.00;;;-0.90;99.90;;;;;;5028373;28;20270;-61
2022/01/12 07:46:46;;;;;;;30.38;17.48;;;-0.90;99.90;;;;;;5028188;28;20237;-61
2022/01/12 07:49:12;;;;;;;31.97;17.37;;;-0.80;99.90;;;;;;5029078;28;20242;-60
2022/01/12 07:51:38;;;;;;;28.33;17.70;;;-0.80;99.90;;;;;;5028273;28;20391;-60
2022/01/12 07:54:03;;;;;;;31.37;17.40;;;-0.80;99.90;;;;;;5027096;28;20222;-61
2022/01/12 07:56:29;;;;;;;33.00;16.97;;;-0.70;99.90;;;;;;5029269;28;20262;-61
2022/01/12 07:58:54;;;;;;;28.93;17.33;;;-0.60;99.90;;;;;;5028457;28;20175;-61
2022/01/12 08:01:20;;;;;;;31.23;16.67;;;-0.50;99.90;;;;;;5023217;28;20183;-61
2022/01/12 08:03:45;;;;;;;30.53;17.87;;;-0.50;99.90;;;;;;5025833;28;20183;-61
2022/01/12 08:06:11;;;;;;;32.40;17.57;;;-0.50;99.90;;;;;;5029501;28;20593;-61
2022/01/12 08:08:36;;;;;;;29.40;17.53;;;-0.40;99.90;;;;;;5029296;28;20562;-61
2022/01/12 08:11:02;;;;;;;30.77;16.70;;;-0.30;99.90;;;;;;5029007;28;20661;-61
2022/01/12 08:13:28;;;;;;;27.50;15.80;;;-0.30;99.90;;;;;;5028666;28;20315;-61
2022/01/12 08:15:53;;;;;;;27.80;16.23;;;-0.30;99.90;;;;;;5028314;28;20216;-60
2022/01/12 08:18:19;;;;;;;27.40;16.80;;;-0.40;99.90;;;;;;5029058;28;20178;-61
2022/01/12 08:20:44;;;;;;;28.90;16.40;;;-0.40;99.90;;;;;;5028415;28;20225;-52
2022/01/12 08:23:10;;;;;;;28.97;18.03;;;-0.40;99.90;;;;;;5028823;28;20179;-54
2022/01/12 08:25:38;;;;;;;25.63;16.08;;;-0.30;99.90;;;;;;5028451;28;20623;-55
2022/01/12 08:28:05;;;;;;;32.72;17.67;;;-0.20;99.90;;;;;;5025674;28;20200;-54
2022/01/12 08:30:33;;;;;;;29.67;17.05;;;-0.20;99.90;;;;;;5023192;28;21092;-53
2022/01/12 08:32:59;;;;;;;32.33;17.55;;;-0.20;99.90;;;;;;5018544;28;20274;-50
2022/01/12 08:35:25;;;;;;;33.20;18.07;;;-0.20;99.90;;;;;;5020356;28;20270;-51
2022/01/12 08:37:51;;;;;;;31.93;16.50;;;-0.20;99.90;;;;;;5013309;28;20190;-51
2022/01/12 08:40:18;;;;;;;28.73;17.10;;;-0.10;99.90;;;;;;5028658;28;20262;-52
2022/01/12 08:42:44;;;;;;;30.02;17.67;;;-0.10;99.90;;;;;;5027586;28;20439;-55
2022/01/12 08:45:10;;;;;;;31.27;17.33;;;-0.10;99.90;;;;;;5031341;28;20556;-52
2022/01/12 08:47:36;;;;;;;29.37;17.60;;;-0.10;99.90;;;;;;5042179;28;20174;-56
2022/01/12 08:50:03;;;;;;;27.77;16.43;;;0.10;99.90;;;;;;5030608;28;20512;-57
2022/01/12 08:52:30;;;;;;;30.75;18.05;;;0.20;99.90;;;;;;5046149;28;20261;-54
2022/01/12 08:54:55;;;;;;;30.15;19.02;;;0.50;99.90;;;;;;5037094;28;20194;-55
2022/01/12 08:57:21;;;;;;;31.33;17.10;;;0.90;99.90;;;;;;5028578;28;20191;-49
2022/01/12 08:59:47;;;;;;;29.77;17.67;;;1.00;99.90;;;;;;5028334;28;20251;-53
2022/01/12 09:02:14;;;;;;;28.45;16.88;;;1.00;99.90;;;;;;5043032;28;20201;-54
2022/01/12 09:04:42;;;;;;;28.48;17.70;;;1.20;99.90;;;;;;5052414;28;20234;-52
2022/01/12 09:07:08;;;;;;;31.25;18.27;;;1.40;99.90;;;;;;5051409;28;20544;-54
2022/01/12 09:09:33;;;;;;;25.93;17.10;;;1.70;99.90;;;;;;5052377;28;20189;-52
2022/01/12 09:11:59;;;;;;;29.13;17.43;;;1.90;99.90;;;;;;5049788;28;20444;-53
2022/01/12 09:14:24;;;;;;;32.60;16.93;;;2.20;99.90;;;;;;5052508;28;20189;-52
2022/01/12 09:16:55;;;;;;;25.97;16.67;;;2.40;99.90;;;;;;5052434;28;20182;-52
2022/01/12 09:19:22;;;;;;;28.13;17.20;;;2.70;99.90;;;;;;5038370;28;20257;-54
2022/01/12 09:21:47;;;;;;;28.23;15.25;;;3.20;99.90;;;;;;5044243;28;20228;-57
2022/01/12 09:24:14;;;;;;;25.30;17.10;;;3.90;99.90;;;;;;5052099;28;20255;-52
2022/01/12 09:26:40;;;;;;;24.80;17.10;;;4.30;99.90;;;;;;5052035;28;20649;-53
2022/01/12 09:29:05;;;;;;;33.58;20.77;;;4.70;99.90;;;;;;5052031;28;20197;-52
2022/01/12 09:31:31;;;;;;;24.80;15.80;;;5.40;99.90;;;;;;5039805;28;20175;-54
2022/01/12 09:33:56;;;;;;;24.30;17.87;;;5.20;99.80;;;;;;5035713;28;20178;-57
2022/01/12 09:36:22;;;;;;;25.27;18.50;;;5.20;99.90;;;;;;5026782;28;20646;-54
2022/01/12 09:38:48;;;;;;;27.40;18.07;;;4.70;99.20;;;;;;5034683;28;20190;-57
2022/01/12 09:41:13;;;;;;;26.20;17.13;;;4.10;99.90;;;;;;5039324;28;20179;-53
2022/01/12 09:43:42;;;;;;;28.07;17.13;;;4.00;99.90;;;;;;5030430;28;20429;-53
2022/01/12 09:46:09;;;;;;;27.63;17.23;;;3.90;99.90;;;;;;5030493;28;20202;-55
2022/01/12 09:48:36;;;;;;;31.00;17.85;;;3.80;99.90;;;;;;5028529;28;20314;-53
2022/01/12 09:51:04;;;;;;;27.00;17.67;;;4.00;99.90;;;;;;5036364;28;20346;-54
2022/01/12 09:53:31;;;;;;;27.60;17.88;;;4.20;99.90;;;;;;5030853;28;20222;-54
2022/01/12 09:55:57;;;;;;;27.05;17.60;;;4.70;99.90;;;;;;5031602;28;20640;-50
2022/01/12 09:58:22;;;;;;;24.63;17.90;;;4.90;99.90;;;;;;5036136;28;20261;-52
2022/01/12 10:00:59;;;;;;;24.27;16.70;;;5.10;99.90;;;;;;5046874;28;20183;-50
2022/01/12 10:03:25;;;;;;;23.02;16.65;;;5.40;99.90;;;;;;5044260;28;20240;-52
2022/01/12 10:05:55;;;;;;;23.23;16.58;;;5.30;99.20;;;;;;5043723;28;20213;-55
2022/01/12 10:08:20;;;;;;;23.98;16.77;;;5.30;99.30;;;;;;5045021;28;20198;-52
2022/01/12 10:11:12;;;;;;;23.97;16.30;;;5.20;98.80;;;;;;5037200;28;20183;-52
2022/01/12 10:13:40;;;;;;;23.55;16.42;;;5.00;99.90;;;;;;5022391;28;20811;-53
2022/01/12 10:16:17;;;;;;;22.60;16.55;;;5.00;99.90;;;;;;5024221;28;20210;-55
2022/01/12 10:18:48;;;;;;;25.50;16.05;;;5.00;99.90;;;;;;5028071;28;20182;-58
2022/01/12 10:21:27;;;;;;;30.38;17.27;;;5.00;99.90;;;;;;5037209;28;20577;-52
2022/01/12 10:24:03;;;;;;;24.98;15.98;;;5.20;99.90;;;;;;5025756;28;20274;-56
2022/01/12 10:26:31;;;;;;;26.30;16.80;;;4.90;99.90;;;;;;5028937;28;20360;-54
2022/01/12 10:29:05;;;;;;;24.20;16.85;;;4.80;99.90;;;;;;5043388;28;20174;-51
2022/01/12 10:31:51;;;;;;;25.65;17.30;;;4.30;99.90;;;;;;5034980;28;20292;-52
2022/01/12 10:34:20;;;;;;;25.90;16.80;;;4.40;99.90;;;;;;5028889;28;20174;-50
2022/01/12 10:36:48;;;;;;;24.98;16.90;;;4.50;99.90;;;;;;5023710;28;20175;-51
2022/01/12 10:39:15;;;;;;;25.00;16.23;;;4.40;99.90;;;;;;5030840;28;20362;-53
2022/01/12 10:41:55;;;;;;;22.95;15.43;;;4.40;99.90;;;;;;5032515;28;20178;-51
2022/01/12 10:44:23;;;;;;;21.20;14.88;;;4.30;99.90;;;;;;5029350;28;20186;-57
2022/01/12 10:46:50;;;;;;;24.60;16.75;;;4.30;99.90;;;;;;5028047;28;20183;-53
2022/01/12 10:49:20;;;;;;;23.63;16.33;;;4.60;99.90;;;;;;5027761;28;20284;-53
2022/01/12 10:51:55;;;;;;;23.67;16.63;;;4.90;99.90;;;;;;5032537;28;20190;-51
2022/01/12 10:54:21;;;;;;;23.83;15.65;;;5.10;99.90;;;;;;5027814;28;20175;-53
2022/01/12 10:56:46;;;;;;;25.90;17.83;;;5.20;99.90;;;;;;5027203;28;20187;-50
2022/01/12 10:59:17;;;;;;;24.37;16.63;;;5.30;99.90;;;;;;5029060;28;20182;-52
2022/01/12 11:01:42;;;;;;;26.75;16.58;;;5.30;99.90;;;;;;5030474;28;20179;-54
2022/01/12 11:04:09;;;;;;;24.77;17.00;;;5.10;99.90;;;;;;5040708;28;20337;-52
2022/01/12 11:06:35;;;;;;;25.75;17.15;;;4.70;99.90;;;;;;5039320;28;20202;-54
2022/01/12 11:09:00;;;;;;;23.20;15.93;;;4.90;99.90;;;;;;5029417;28;20179;-55
2022/01/12 11:11:28;;;;;;;20.77;16.20;;;5.00;99.90;;;;;;5029254;28;20442;-54
2022/01/12 11:13:55;;;;;;;23.63;16.50;;;5.10;99.90;;;;;;5034229;28;20279;-53
2022/01/12 11:16:21;;;;;;;26.48;17.35;;;5.30;99.90;;;;;;5030959;28;20253;-53
2022/01/12 11:18:48;;;;;;;28.20;17.40;;;5.30;99.90;;;;;;5029810;28;20223;-52
2022/01/12 11:21:27;;;;;;;24.10;17.05;;;5.20;99.90;;;;;;5033579;28;20179;-54
2022/01/12 11:23:57;;;;;;;23.25;15.68;;;5.30;99.90;;;;;;5028437;28;20187;-53
2022/01/12 11:26:25;;;;;;;24.25;16.60;;;5.40;99.90;;;;;;5029540;28;20198;-56
2022/01/12 11:28:52;;;;;;;23.33;15.52;;;5.50;99.90;;;;;;5027833;28;20262;-52
2022/01/12 11:31:35;;;;;;;23.08;15.95;;;5.50;99.90;;;;;;5028225;28;20186;-55
2022/01/12 11:34:01;;;;;;;28.23;16.65;;;5.90;99.90;;;;;;5028183;28;20186;-48
2022/01/12 11:36:27;;;;;;;23.00;16.33;;;6.10;99.90;;;;;;5030137;28;20183;-53
2022/01/12 11:39:03;;;;;;;25.60;16.90;;;6.40;99.90;;;;;;5030499;28;20642;-54
2022/01/12 11:41:34;;;;;;;24.70;17.43;;;6.60;99.90;;;;;;5029881;28;20421;-50
2022/01/12 11:44:05;;;;;;;20.90;15.37;;;6.80;99.90;;;;;;5026794;28;20446;-52
2022/01/12 11:46:41;;;;;;;26.20;17.60;;;7.10;98.90;;;;;;5023652;28;20986;-52
2022/01/12 11:49:07;;;;;;;23.83;16.43;;;7.00;99.30;;;;;;5028545;28;20460;-54
2022/01/12 11:51:34;;;;;;;25.20;16.97;;;7.00;98.40;;;;;;5027864;28;20426;-51
2022/01/12 11:54:09;;;;;;;22.50;15.73;;;7.60;98.40;;;;;;5023722;28;20286;-50
2022/01/12 11:56:35;;;;;;;21.53;16.63;;;8.30;96.40;;;;;;5027785;28;21427;-53
2022/01/12 11:59:12;;;;;;;22.10;17.13;;;9.50;94.00;;;;;;5037131;28;20417;-53
2022/01/12 12:01:49;;;;;;;21.43;16.80;;;10.80;90.20;;;;;;5040528;28;20408;-55
2022/01/12 12:04:30;;;;;;;22.93;16.17;;;11.20;81.20;;;;;;5048163;28;20917;-53
2022/01/12 12:07:14;;;;;;;23.43;16.93;;;11.70;81.70;;;;;;5042090;28;20456;-53
2022/01/12 12:09:48;;;;;;;19.17;15.70;;;12.10;74.80;;;;;;5045734;28;20439;-56
2022/01/12 12:12:37;;;;;;;20.90;16.13;;;12.00;71.60;;;;;;5046017;28;20755;-55
2022/01/12 12:15:08;;;;;;;20.73;14.97;;;11.30;72.10;;;;;;5031155;28;20444;-54
2022/01/12 12:17:36;;;;;;;25.50;17.40;;;11.20;74.40;;;;;;5032715;28;20434;-55
2022/01/12 12:20:03;;;;;;;20.30;16.17;;;10.70;74.90;;;;;;5029576;28;20440;-53
2022/01/12 12:22:32;;;;;;;18.50;15.27;;;10.40;77.80;;;;;;5029542;28;20983;-54
2022/01/12 12:25:07;;;;;;;19.80;15.90;;;9.80;79.10;;;;;;5032588;28;20454;-53
2022/01/12 12:27:35;;;;;;;19.67;15.93;;;9.70;80.50;;;;;;5032579;28;20432;-55
2022/01/12 12:30:03;;;;;;;22.70;16.27;;;9.40;82.30;;;;;;5030361;28;20512;-53
2022/01/12 12:32:56;;;;;;;19.87;16.00;;;9.80;81.60;;;;;;5032538;28;20429;-55
2022/01/12 12:35:30;;;;;;;18.40;15.50;;;10.10;82.70;;;;;;5025929;28;20437;-55
2022/01/12 12:38:02;;;;;;;18.87;16.00;;;10.60;82.10;;;;;;5038513;28;20495;-53
2022/01/12 12:40:28;;;;;;;16.90;15.10;;;11.60;78.00;;;;;;5030039;28;20441;-53
2022/01/12 12:43:17;;;;;;;19.27;16.00;;;12.20;70.70;;;;;;5035813;28;20428;-54
2022/01/12 12:45:45;;;;;;;17.53;15.50;;;11.80;68.70;;;;;;5032878;28;20452;-54
2022/01/12 12:48:22;;;;;;;17.63;15.43;;;11.50;72.60;;;;;;5037860;28;20433;-52
2022/01/12 12:50:59;;;;;;;19.13;15.30;;;11.90;72.00;;;;;;5041942;28;20519;-52
2022/01/12 12:53:33;;;;;;;20.67;16.37;;;11.50;69.70;;;;;;5027130;28;20452;-55
2022/01/12 12:55:59;;;;;;;19.20;16.33;;;11.40;69.50;;;;;;5040728;28;20513;-55
2022/01/12 12:58:26;;;;;;;20.97;16.43;;;11.20;70.70;;;;;;5037195;28;20444;-54
2022/01/12 13:00:52;;;;;;;20.97;15.63;;;11.20;72.10;;;;;;5048272;28;20512;-59
2022/01/12 13:03:17;;;;;;;19.60;16.03;;;10.60;72.70;;;;;;5048235;28;20515;-56
2022/01/12 13:05:43;;;;;;;21.00;15.97;;;9.90;76.90;;;;;;5034341;28;20596;-52
2022/01/12 13:08:10;;;;;;;20.50;15.43;;;9.80;76.70;;;;;;5044605;28;20865;-54
2022/01/12 13:10:37;;;;;;;18.93;14.97;;;9.20;80.50;;;;;;5034583;28;20646;-54
2022/01/12 13:13:09;;;;;;;18.20;14.53;;;9.00;84.10;;;;;;5039515;28;20548;-52
2022/01/12 13:15:37;;;;;;;24.33;16.33;;;8.80;85.90;;;;;;5048490;28;20448;-55
2022/01/12 13:18:07;;;;;;;19.30;14.30;;;8.60;86.30;;;;;;5039567;28;21117;-59
2022/01/12 13:23:59;;;;;;;17.40;15.20;;;8.20;89.50;;;;;;5028991;28;20441;-60
2022/01/12 13:26:26;;;;;;;22.63;15.97;;;7.90;91.50;;;;;;5015141;28;20537;-60
2022/01/12 13:28:52;;;;;;;21.70;15.30;;;7.90;91.20;;;;;;5038780;28;20869;-56
2022/01/12 13:31:19;;;;;;;18.30;14.30;;;7.70;92.30;;;;;;5043515;28;20499;-60
2022/01/12 13:33:51;;;;;;;19.80;15.20;;;7.80;94.10;;;;;;5038809;28;20955;-60
2022/01/12 13:36:19;;;;;;;19.17;15.40;;;7.80;92.90;;;;;;5028187;28;20413;-60
2022/01/12 13:39:00;;;;;;;21.07;15.80;;;7.60;93.10;;;;;;5022128;28;20421;-60
2022/01/12 13:41:31;;;;;;;21.60;15.27;;;7.50;93.60;;;;;;5046893;28;20427;-60
2022/01/12 13:44:05;;;;;;;20.03;15.67;;;7.50;94.60;;;;;;5039995;28;20433;-60
2022/01/12 13:46:33;;;;;;;18.80;15.70;;;7.50;93.70;;;;;;5037104;28;20469;-60
2022/01/12 13:49:20;;;;;;;17.83;14.30;;;7.40;94.10;;;;;;5025993;28;21051;-61